Airfield :
LOGIN :

Register | Disclaimer

   EN    FR    IT 

 










Legend :    VFR   Marginal VFR   IFR   Intensive IFR   Very Intensive IFR
Visi :
Ceiling :
>= 8 km
>= 3000ft
5 to 8 km
1000 to 3000 ft
1500m to 5 km
500 to 1000 ft
800 to 1500m
200 to 500 ft
< 800m
< 200 ft
Symbols :   Thunderstorms  Fog  Heavy snow  Heavy precipitations  Wind > 20 kt
SIGMETs :     Misc.  Thunderstorms  Icing  Turbulence  Mountain Waves  Volcanic Ashes






- Airport Elevation : 36 ft
- IATA code : LTQ


LFAT - Le Touquet

CURRENT METAR :
  • 011100Z AUTO 28013KT CAVOK 09/04 Q1026 TEMPO 29020G30KT

EXPIRED METARs :
  • 011030Z AUTO 28013KT 250V310 CAVOK 09/04 Q1026 TEMPO 29020G30KT
  • 011000Z AUTO 29014KT CAVOK 09/04 Q1026 TEMPO 29020G30KT
  • 010930Z AUTO 29012KT CAVOK 09/05 Q1026 TEMPO 29020G30KT
  • 010900Z AUTO 28012G24KT CAVOK 08/04 Q1026 NOSIG
  • 010830Z AUTO 29012KT 260V320 CAVOK 08/04 Q1026 BECMG 29015G30KT

TAF TAF LFAT
Valid from the 01 at 09:00 until the 01 at 18:00 UTC


010800Z 0109/0118 29012KT CAVOK
TEMPO 0109/0115 29020G30KT
ATIS : +33 3 21 06 62 84



MET'MAP, your aeronautical weather chart ! - Copyright ORBIFLY December 2007 - Disclaimer

ORBIFLY MET'MAP TEAM :

Programming & Development : Alexandra Zaïnal
Original concept : Baudouin d'Aumeries
Technical & hardware support : Manuel Goepfert
Assistance : Marc-Olivier Méhu




SOURCES & CREDITS :

   NOAA